Time;durP1;ratioP1;P1;durP2;ratioP2;P2;SDS_P1;SDS_P2;PMS_P1;PMS_P2;Temp;Humidity;BMP_temperature;BMP_pressure;BME280_temperature;BME280_humidity;BME280_pressure;Samples;Min_cycle;Max_cycle;Signal;HPM_P1;HPM_P2
2023/12/17 00:00:42;;;;;;;15.10;9.30;;;;;;;5.55;96.54;101259.27;103205;1254;107668;-69
2023/12/17 00:03:29;;;;;;;13.10;9.50;;;;;;;5.56;96.89;101255.48;103169;1254;139270;-70
2023/12/17 00:05:56;;;;;;;16.40;9.80;;;;;;;5.57;96.74;101249.98;103290;1254;106805;-70
2023/12/17 00:08:23;;;;;;;18.70;11.20;;;;;;;5.58;96.55;101253.43;103132;1257;137879;-70
2023/12/17 00:10:50;;;;;;;17.00;10.70;;;;;;;5.59;96.56;101262.08;103225;1257;112366;-70
2023/12/17 00:13:18;;;;;;;15.10;9.90;;;;;;;5.59;96.59;101260.52;103166;1254;108167;-70
2023/12/17 00:15:45;;;;;;;16.60;10.10;;;;;;;5.61;96.41;101250.17;103204;1254;97711;-70
2023/12/17 00:18:14;;;;;;;13.70;9.10;;;;;;;5.61;96.40;101251.38;103194;1257;107020;-70
2023/12/17 00:20:41;;;;;;;14.80;9.20;;;;;;;5.61;96.52;101242.23;103091;1254;138522;-70
2023/12/17 00:23:08;;;;;;;15.50;10.10;;;;;;;5.62;96.51;101233.27;103187;1255;112104;-70
2023/12/17 00:25:35;;;;;;;15.20;8.90;;;;;;;5.65;96.43;101228.95;103110;1258;138822;-70
2023/12/17 00:28:02;;;;;;;14.30;9.60;;;;;;;5.65;96.19;101222.74;103187;1257;97824;-70
2023/12/17 00:30:29;;;;;;;14.90;9.60;;;;;;;5.65;96.18;101221.20;103224;1254;108248;-70
2023/12/17 00:32:56;;;;;;;15.30;9.50;;;;;;;5.67;96.35;101227.41;103170;1257;138512;-70
2023/12/17 00:35:23;;;;;;;14.00;8.40;;;;;;;5.70;96.15;101227.59;103254;1258;111322;-70
2023/12/17 00:37:51;;;;;;;14.60;9.40;;;;;;;5.74;96.06;101236.23;103072;1254;138389;-70
2023/12/17 00:40:17;;;;;;;13.80;9.80;;;;;;;5.77;95.98;101234.19;103197;1254;97797;-70
2023/12/17 00:42:45;;;;;;;16.60;10.90;;;;;;;5.78;95.83;101233.67;103168;1254;108027;-70
2023/12/17 00:45:12;;;;;;;18.80;10.10;;;;;;;5.77;95.81;101231.95;103111;1257;138278;-69
2023/12/17 00:47:39;;;;;;;16.50;9.20;;;;;;;5.77;95.83;101230.21;103264;1257;110907;-69
2023/12/17 00:50:07;;;;;;;13.60;9.80;;;;;;;5.79;95.78;101224.88;103041;1254;138475;-68
2023/12/17 00:52:35;;;;;;;18.50;9.90;;;;;;;5.80;95.62;101237.13;102458;1254;1003326;-70
2023/12/17 00:55:01;;;;;;;18.50;10.00;;;;;;;5.80;95.62;101240.58;103159;1257;107029;-69
2023/12/17 00:57:28;;;;;;;17.90;9.10;;;;;;;5.80;95.55;101236.27;103042;1261;138809;-69
2023/12/17 00:59:56;;;;;;;14.90;9.20;;;;;;;5.80;95.33;101227.80;103228;1257;110887;-70
2023/12/17 01:02:23;;;;;;;15.50;8.60;;;;;;;5.79;95.38;101226.42;102368;1254;1003695;-69
2023/12/17 01:04:50;;;;;;;17.40;9.50;;;;;;;5.85;95.40;101233.52;103176;1257;97842;-69
2023/12/17 01:07:16;;;;;;;17.20;10.10;;;;;;;5.90;95.51;101244.41;103176;1254;107648;-68
2023/12/17 01:09:43;;;;;;;15.10;10.00;;;;;;;5.93;95.24;101242.72;103067;1254;138462;-70
2023/12/17 01:12:10;;;;;;;22.90;11.20;;;;;;;5.93;95.05;101245.48;103166;1255;111648;-69
2023/12/17 01:14:37;;;;;;;18.30;10.10;;;;;;;5.92;95.08;101239.42;103086;1254;138870;-69
2023/12/17 01:17:06;;;;;;;16.20;10.90;;;;;;;5.93;95.21;101231.50;103184;1254;97813;-69
2023/12/17 01:19:35;;;;;;;15.60;9.30;;;;;;;5.93;95.09;101218.04;103046;1254;138798;-69
2023/12/17 01:22:02;;;;;;;16.50;10.10;;;;;;;5.91;94.87;101209.90;101822;1254;1003880;-70
2023/12/17 01:24:28;;;;;;;19.10;10.70;;;;;;;5.92;95.09;101206.27;103200;1254;110343;-70
2023/12/17 01:26:55;;;;;;;18.90;10.90;;;;;;;5.92;95.11;101211.98;103037;1256;138874;-69
2023/12/17 01:29:22;;;;;;;19.10;10.10;;;;;;;5.90;95.13;101212.48;103248;1254;97796;-69
2023/12/17 01:31:49;;;;;;;21.30;11.10;;;;;;;5.89;95.26;101200.55;102347;1254;1002631;-70
2023/12/17 01:34:16;;;;;;;18.40;10.90;;;;;;;5.91;95.14;101201.96;103236;1254;97872;-69
2023/12/17 01:36:43;;;;;;;21.60;10.70;;;;;;;5.90;95.44;101197.64;103257;1257;110427;-70
2023/12/17 01:39:10;;;;;;;20.10;10.30;;;;;;;5.90;95.31;101200.91;103124;1254;138770;-70
2023/12/17 01:41:38;;;;;;;21.00;11.20;;;;;;;5.91;95.25;101197.64;103092;1257;98351;-70
2023/12/17 01:44:05;;;;;;;19.50;11.60;;;;;;;5.91;95.38;101200.06;103076;1257;137840;-71
2023/12/17 01:46:32;;;;;;;20.70;12.90;;;;;;;5.91;95.41;101187.80;103120;1257;97787;-69
2023/12/17 01:48:59;;;;;;;21.80;12.70;;;;;;;5.89;95.48;101175.36;103169;1257;110348;-69
2023/12/17 01:51:27;;;;;;;22.40;13.20;;;;;;;5.87;95.33;101175.17;102920;1256;138969;-70
2023/12/17 01:53:54;;;;;;;21.50;12.30;;;;;;;5.87;95.47;101180.52;103209;1257;98545;-70
2023/12/17 01:56:21;;;;;;;19.20;11.00;;;;;;;5.86;95.78;101180.35;103110;1257;138708;-69
2023/12/17 01:58:49;;;;;;;22.80;11.60;;;;;;;5.85;95.98;101178.80;102409;1258;1003658;-69
2023/12/17 02:01:16;;;;;;;20.70;11.10;;;;;;;5.85;96.11;101187.60;103135;1254;111646;-69
2023/12/17 02:03:52;;;;;;;19.30;11.50;;;;;;;5.87;96.07;101185.53;102909;1255;138543;-69
2023/12/17 02:06:19;;;;;;;21.40;11.90;;;;;;;5.88;96.13;101164.47;103247;1257;97839;-70
2023/12/17 02:08:46;;;;;;;20.80;10.30;;;;;;;5.88;96.13;101164.47;103108;1254;138750;-70
2023/12/17 02:11:13;;;;;;;19.30;10.70;;;;;;;5.90;96.28;101161.73;103245;1257;97801;-70
2023/12/17 02:13:40;;;;;;;20.80;11.40;;;;;;;5.91;96.28;101157.42;103099;1254;140334;-70
2023/12/17 02:16:09;;;;;;;21.00;12.60;;;;;;;5.91;96.27;101159.84;103207;1256;105451;-70
2023/12/17 02:18:37;;;;;;;21.20;13.00;;;;;;;5.92;96.47;101142.75;103336;1257;98956;-69
2023/12/17 02:21:04;;;;;;;21.90;11.90;;;;;;;5.90;96.60;101159.15;103134;1257;138181;-70
2023/12/17 02:23:31;;;;;;;22.70;11.70;;;;;;;5.91;96.81;101166.23;103188;1254;97807;-70
2023/12/17 02:25:58;;;;;;;23.70;12.60;;;;;;;5.91;96.84;101166.73;103149;1254;139138;-70
2023/12/17 02:32:04;;;;;;;20.30;11.20;;;;;;;5.89;97.05;101153.44;103100;1254;138862;-71
2023/12/17 02:34:31;;;;;;;19.00;11.00;;;;;;;5.91;97.46;101155.87;103038;1257;106989;-71
2023/12/17 02:36:58;;;;;;;22.90;11.20;;;;;;;5.94;97.64;101151.06;103097;1253;97918;-71
2023/12/17 02:39:24;;;;;;;18.90;11.30;;;;;;;5.96;97.41;101152.28;103078;1257;138993;-70
2023/12/17 02:41:51;;;;;;;22.30;11.00;;;;;;;5.96;97.49;101149.69;102244;1257;1003799;-70
2023/12/17 02:44:18;;;;;;;21.50;11.60;;;;;;;5.97;97.71;101149.34;103067;1257;139173;-70
2023/12/17 02:46:45;;;;;;;27.80;12.80;;;;;;;5.98;97.69;101153.14;103097;1254;106849;-70
2023/12/17 02:49:13;;;;;;;21.30;10.30;;;;;;;5.98;97.80;101156.59;103176;1257;97804;-70
2023/12/17 02:51:40;;;;;;;21.70;10.80;;;;;;;5.98;97.87;101164.02;102955;1254;138380;-71
2023/12/17 02:54:07;;;;;;;20.60;11.50;;;;;;;5.99;97.92;101171.09;102321;1256;1002888;-71
2023/12/17 02:56:40;;;;;;;22.10;10.90;;;;;;;6.02;98.03;101179.89;102884;1254;139230;-70
2023/12/17 02:59:08;;;;;;;21.80;11.60;;;;;;;6.04;98.06;101175.23;102940;1253;1002385;-70
2023/12/17 03:01:46;;;;;;;24.50;12.40;;;;;;;6.03;98.18;101158.66;103310;1252;142174;-70
